Iberia, Ohio
Current Conditions -  °F | °C
As of 10:53 AM on Monday 26 Jan 2015 (Local Time) from KMNN Reporting Station
Overcast Overcast  
Wind Chill: -16°   Ceiling: 1100
Heat Index: -8°   Visibility: 7mi
Dew Point: -11°   Wind: 16mph
Humidity: 81%   Direction: 340°NNW
Pressure: 29.87"   Gusts: NA
Location:  40.67°N, 82.84°W
Report Text: KMNN 261553Z AUTO 34014KT 7SM OVC011 M08/M11 A2987 RMK AO2 SLP132 T10781106 TSNO $
Loading
Personal Weather Stations






























Interactive Weather Map New forecast layout! Learn more

10-Day Weather Forecast

Advertisements
Track Severe Weather on mobile